CheckWX is a tool to help pilots better visualize weather data.  It is not intended as a substitute for an official pre-flight weather briefing.

06:24:49 UTC

EHEH METAR
Eindhoven Airport
Eindhoven, The Netherlands
Current

18 mins ago

EHEH 240607Z AUTO 17005KT 150V210 2300 R21/2400U BR OVC001 00/00 Q1024 RED 18004KT 1200 BR BKN001 OVC002 TEMPO 0500 FG OVC000 RMK LVP BRAVO
Observed
Jan-24 @ 06:07 UTC
Wind
  • 170° at 5 KTS
Visibility
2,300 meters
Flight Rules
LIFR
Conditions
Mist, Mist
Cloud Levels
  • Overcast at 100' AGL
  • Broken at 100' AGL
  • Overcast at 200' AGL
Temperature
C / 32°F
Dewpoint
C / 32°F
Humidity
100%
Altimeter
30.24" Hg
Pressure
1023.92 hPa
Previous

22 mins ago

EHEH 240603Z AUTO 17005KT 2200 R21/2100U BR OVC002 00/00 Q1024 AMB 18004KT 1200 BR BKN001 OVC002 TEMPO 0500 FG OVC000 RMK LVP BRAVO
Observed
Jan-24 @ 06:03 UTC
Wind
  • 170° at 5 KTS
Visibility
2,200 meters
Flight Rules
LIFR
Conditions
Mist, Mist
Cloud Levels
  • Overcast at 200' AGL
  • Broken at 100' AGL
  • Overcast at 200' AGL
Temperature
C / 32°F
Dewpoint
C / 32°F
Humidity
100%
Altimeter
30.24" Hg
Pressure
1023.92 hPa
Previous

30 mins ago

EHEH 240555Z AUTO 18005KT 160V230 2000 R21/1600N BR OVC002 00/00 Q1024 AMB 18004KT 1200 BR BKN001 OVC002 TEMPO 0500 FG OVC000 RMK LVP BRAVO
Observed
Jan-24 @ 05:55 UTC
Wind
  • 180° at 5 KTS
Visibility
2,000 meters
Flight Rules
LIFR
Conditions
Mist, Mist
Cloud Levels
  • Overcast at 200' AGL
  • Broken at 100' AGL
  • Overcast at 200' AGL
Temperature
C / 32°F
Dewpoint
C / 32°F
Humidity
100%
Altimeter
30.24" Hg
Pressure
1023.92 hPa